Gabriel Amaral

Olheiro - Sampaio Correa
20 Nov 2027
Sábado
Processo

Personalidade

Adaptabilidade (17) Ambição (8) Controvérsia (7) Lealdade (14) Pressão (1) Profissionalismo (1) Espírito Esportivo (15) Temperamento (16)

Perfil

Estilo de Treinamento Democrático
Licença Nacional A
Determinação 9
Gestão de Pessoas 11
Motivação 4
Disciplina 6
Satisfação no Trabalho
100%
Fadiga
0%
Função Olheiro
Salário 12.5K p/s
Contrato 14.03.2028

Desempenho

Comportamento Bom
Eficácia do Treinamento
41%
Desenvolvimento do Jogador
40%
Prevenção de Lesões
40%
Implementação Tática
45%

Eventos Recentes

Participou de uma reunião de recrutamento agora
Recomendou um alvo de transferência agora
Participou de uma reunião de recrutamento 7d atrás
Recomendou um alvo de transferência 7d atrás
Recomendou um alvo de transferência 7d atrás
Participou de uma reunião de recrutamento 14d atrás
Recomendou um alvo de transferência 14d atrás
Recomendou um alvo de transferência 14d atrás

Monitorando agora

114
Jogador Clube Status Habilidade Confiança Observado Última observação Último voto
Adriel São Paulo Ativo 77 / 87 65% 1 07.06.2027 Aprovar
Kauê Canela Fortaleza Ativo 92 / 104 65% 1 06.06.2027 Aprovar
Perry Ng Cardiff City Ativo 119 / 119 40% 1 31.05.2027 -
Reverson Adana Demirspor Ativo 102 / 124 40% 3 30.11.2026 -
Márcio Alves Mouscron Ativo 125 / 110 40% 3 30.11.2026 -
Martins Júnior Zira Ativo 112 / 100 40% 1 30.11.2026 -
Raniel Oliveirense Ativo 114 / 105 40% 3 29.11.2026 -
Roni AVS Ativo 128 / 119 40% 4 29.11.2026 -
Luis Quintero Torreense Ativo 130 / 134 40% 2 29.11.2026 -
Abraham Marcus Estrela da Amadora Ativo 128 / 119 40% 2 29.11.2026 -
Matheus Costa Leixões Ativo 120 / 110 40% 2 29.11.2026 -
Léo Pereira CSKA Sofia Ativo 131 / 129 40% 1 29.11.2026 -
Gustavo Garcia Famalicao Ativo 112 / 122 40% 2 26.11.2026 -
Felipe Silva Porto Ativo 108 / 108 40% 1 26.11.2026 -
Liziero Nacional Ativo 123 / 133 40% 3 25.11.2026 -
Luan Patrick Estrela da Amadora Ativo 124 / 110 40% 1 25.11.2026 -
Manu Pozo Torreense Ativo 115 / 121 40% 1 25.11.2026 -
Max Svensson Penafiel Ativo 98 / 115 40% 1 25.11.2026 -
Vinícius Lopes Santa Clara Ativo 132 / 128 40% 3 21.11.2026 -
João Carvalho Estoril Praia Ativo 122 / 129 40% 2 21.11.2026 -
Everton Cebolinha Farense Ativo 128 / 120 40% 1 21.11.2026 -
Pedro Barcelos Académico de Viseu Ativo 118 / 102 40% 2 20.11.2026 -
Anílson Pacos de Ferreira Ativo 101 / 91 40% 2 20.11.2026 -
Matheus Dias Nacional Ativo 122 / 120 40% 2 20.11.2026 -
Maurício Palmeiras Ativo 132 / 132 40% 2 20.11.2026 -
Jair Silva Leiria Ativo 115 / 100 40% 1 20.11.2026 -
Gabriel Novaes Leixões Ativo 102 / 116 40% 6 16.11.2026 -
Vitinho Santa Clara Ativo 117 / 106 40% 3 16.11.2026 -
Gabriel Veron Porto Ativo 115 / 122 40% 3 15.11.2026 -
MT Santa Clara Ativo 106 / 121 40% 2 15.11.2026 -
Ronald Swansea City Ativo 118 / 123 40% 4 14.11.2026 -
Zinho Portimonense Ativo 94 / 95 40% 1 14.11.2026 -
Weverson Gil Vicente Ativo 108 / 126 40% 1 14.11.2026 -
Sidney Lima Braga Ativo 133 / 137 40% 1 12.11.2026 -
Maga Leiria Ativo 114 / 107 40% 1 12.11.2026 -
Michel Costa Felgueiras Ativo 95 / 110 40% 1 10.11.2026 -
Oussama Idrissi Ferencvaros Ativo 154 / 127 40% 1 09.11.2026 -
Alex Luna Instituto Ativo 132 / 127 40% 1 04.11.2026 -
Pedro Bicalho Qarabag Ativo 122 / 132 40% 1 04.11.2026 -
Ktatau Chaves Ativo 91 / 99 40% 2 03.11.2026 -
Brenner Santa Clara Ativo 100 / 105 40% 3 02.11.2026 -
Matías Fernández Independiente Rivadavia Ativo 129 / 124 40% 1 02.11.2026 -
Brayan Medina Tondela Ativo 110 / 125 40% 1 02.11.2026 -
Pedro Santos Arouca Ativo 127 / 124 40% 1 02.11.2026 -
Welington Southampton Ativo 133 / 126 40% 1 30.10.2026 -
Maicon Levski Ativo 112 / 126 40% 2 29.10.2026 -
Allan Sousa Moreirense Ativo 121 / 100 40% 1 26.10.2026 -
Pedro Maranhão Tondela Ativo 128 / 109 40% 1 26.10.2026 -
Leonai Souza RC Lens Ativo 121 / 132 40% 2 25.10.2026 -
Lucas Soares Santa Clara Ativo 123 / 106 40% 3 22.10.2026 -
Gabriel Silva Braga Ativo 133 / 139 40% 2 22.10.2026 -
De Lucca Adana Demirspor Ativo 107 / 120 40% 1 22.10.2026 -
André Luiz Sporting Kansas City Ativo 122 / 114 40% 2 19.10.2026 -
Eduardo Henrique Stade Brestois Ativo 123 / 121 40% 1 19.10.2026 -
Lincoln Alverca Ativo 135 / 125 40% 2 08.10.2026 -
João Paulo Crawley Town Ativo 106 / 110 40% 3 08.10.2026 -
Jérémy Livolant Casa Pia Ativo 134 / 120 40% 1 08.10.2026 -
Leandro Soares Felgueiras Ativo 85 / 103 40% 1 08.10.2026 -
Tadeo Allende Inter Miami CF Ativo 133 / 112 40% 1 07.10.2026 -
Nicolás Cordero Aldosivi Ativo 113 / 122 40% 1 07.10.2026 -
Kelvin Yeboah Minnesota United FC Ativo 128 / 126 40% 1 07.10.2026 -
Gabriel Barbosa Farense Ativo 120 / 113 40% 1 06.10.2026 -
Rafael Navarro St. Louis CITY SC Ativo 121 / 115 40% 1 06.10.2026 -
Emersonn Ipswich Town Ativo 114 / 133 40% 2 02.10.2026 -
Dominik Steczyk Académico de Viseu Ativo 111 / 100 40% 1 02.10.2026 -
Tomás Chancalay Minnesota United FC Ativo 124 / 121 40% 2 01.10.2026 -
Felipe Vizeu Sporting Cristal Ativo 117 / 120 40% 1 01.10.2026 -
Morgan Guilavogui Real Salt Lake Ativo 117 / 130 40% 1 01.10.2026 -
Bryan Róchez Penafiel Ativo 112 / 109 40% 1 30.09.2026 -
Dylan Nandín Arouca Ativo 121 / 113 40% 1 30.09.2026 -
Luca Martínez Dupuy Godoy Cruz Ativo 124 / 117 40% 1 27.09.2026 -
Luca Langoni New England Revolution Ativo 136 / 116 40% 1 27.09.2026 -
Luccas Paraízo Leixões Ativo 89 / 93 40% 3 24.09.2026 -
Antony Alonso Deportivo Riestra Ativo 118 / 120 40% 2 24.09.2026 -
Yan Maranhão Moreirense Ativo 101 / 106 40% 1 24.09.2026 -
Pablo Fernández Leiria Ativo 115 / 111 40% 1 22.09.2026 -
Andre Green AVS Ativo 107 / 100 40% 1 22.09.2026 -
Guilherme Neiva AVS Ativo 118 / 109 40% 1 22.09.2026 -
Figueiredo Alverca Ativo 115 / 123 40% 3 20.09.2026 -
Yuri Tanque Criciuma Ativo 123 / 118 40% 1 19.09.2026 -
Kévin Zohi Torreense Ativo 123 / 119 40% 1 19.09.2026 -
Kahiser Lenis Feirense Ativo 111 / 108 40% 1 19.09.2026 -
Douglas Jardel Tacuarembo Ativo 99 / 100 40% 1 18.09.2026 -
Santiago Sala Güemes Ativo 111 / 108 40% 2 17.09.2026 -
Marcus Ingvartsen San Diego Football Club Ativo 126 / 136 40% 1 17.09.2026 -
Martín Ojeda Orlando City Ativo 128 / 124 40% 1 17.09.2026 -
Rui Pedro Felgueiras Ativo 106 / 104 40% 1 16.09.2026 -
Favio Cabral Mitre Ativo 110 / 114 40% 2 15.09.2026 -
Kévin Denkey FC Cincinnati Ativo 138 / 114 40% 1 14.09.2026 -
Zé Ricardo Tondela Ativo 109 / 117 40% 1 12.09.2026 -
Bernardo Schappo Estrela da Amadora Ativo 131 / 130 40% 2 09.09.2026 -
Vasco Sousa Porto Ativo 108 / 117 40% 1 09.09.2026 -
Enzo Avaro Mitre Ativo 111 / 115 40% 1 08.09.2026 -
Cheikh Sabaly Vancouver Whitecaps Ativo 120 / 124 40% 1 08.09.2026 -
Lucas Halter Houston Dynamo Ativo 119 / 118 40% 1 07.09.2026 -
Gabriel Busanello Malmo FF Ativo 117 / 115 40% 1 07.09.2026 -
Paulinho Boia Casa Pia Ativo 109 / 127 40% 1 04.09.2026 -
Pablo Ruan Nacional Ativo 115 / 99 40% 1 31.08.2026 -
Alexander Aravena Portland Timbers Ativo 111 / 137 40% 1 31.08.2026 -
Matheus Machado Casa Pia Ativo 94 / 110 40% 1 23.08.2026 -
Welinton Torrão Santa Clara Ativo 107 / 119 40% 1 23.08.2026 -
Guilherme Houston Dynamo Ativo 116 / 127 40% 1 23.08.2026 -
Chuchu Ramírez Nacional Ativo 141 / 132 40% 1 21.08.2026 -
Guilherme Biro Austin FC Ativo 117 / 120 40% 1 19.08.2026 -
Volnei Torreense Ativo 114 / 94 40% 1 19.08.2026 -
David Sousa Casa Pia Ativo 118 / 122 40% 1 15.08.2026 -
Ulisses Nacional Ativo 105 / 101 40% 1 15.08.2026 -
Rayan Lucas Alverca Ativo 102 / 117 40% 1 15.08.2026 -
John Victor Nottingham Forest Ativo 134 / 138 40% 1 07.08.2026 -
Ignacio de Arruabarrena Arouca Ativo 129 / 132 40% 1 07.08.2026 -
Lucas Bruera Carabobo Ativo 119 / 119 40% 1 05.08.2026 -
Héctor Hernández Gil Vicente Ativo 136 / 130 40% 1 04.08.2026 -
Murilo Souza Gil Vicente Ativo 123 / 126 40% 1 01.08.2026 -
Igor Julião Maritimo Ativo 99 / 107 40% 1 01.08.2026 -